createdAt,value
2018-05-23T00:02:14.202Z,15.63
2018-05-23T00:04:40.794Z,15.77
2018-05-23T00:07:07.358Z,16.30
2018-05-23T00:09:33.909Z,15.53
2018-05-23T00:12:00.464Z,15.70
2018-05-23T00:14:27.732Z,17.97
2018-05-23T00:16:54.998Z,14.50
2018-05-23T00:19:21.537Z,16.03
2018-05-23T00:21:48.075Z,16.57
2018-05-23T00:24:14.639Z,19.93
2018-05-23T00:26:41.183Z,18.93
2018-05-23T00:29:07.736Z,18.77
2018-05-23T00:31:34.264Z,17.33
2018-05-23T00:34:00.880Z,17.50
2018-05-23T00:36:27.400Z,18.27
2018-05-23T00:38:53.952Z,17.57
2018-05-23T00:41:20.566Z,17.40
2018-05-23T00:43:47.152Z,16.90
2018-05-23T00:46:13.722Z,17.60
2018-05-23T00:48:41.017Z,17.53
2018-05-23T00:51:07.532Z,16.53
2018-05-23T00:53:34.276Z,16.83
2018-05-23T00:56:00.813Z,16.97
2018-05-23T00:58:27.386Z,17.20
2018-05-23T01:00:53.956Z,18.97
2018-05-23T01:03:21.303Z,19.33
2018-05-23T01:05:48.584Z,21.60
2018-05-23T01:08:15.126Z,19.30
2018-05-23T01:10:41.667Z,20.17
2018-05-23T01:13:08.205Z,18.57
2018-05-23T01:15:34.822Z,17.13
2018-05-23T01:18:01.376Z,18.40
2018-05-23T01:20:27.984Z,17.90
2018-05-23T01:22:54.608Z,22.00
2018-05-23T01:25:21.294Z,19.07
2018-05-23T01:27:47.847Z,17.40
2018-05-23T01:30:14.442Z,17.70
2018-05-23T01:32:41.070Z,19.80
2018-05-23T01:35:07.656Z,22.97
2018-05-23T01:37:34.239Z,23.20
2018-05-23T01:40:01.634Z,20.93
2018-05-23T01:42:28.265Z,21.13
2018-05-23T01:44:55.595Z,18.50
2018-05-23T01:47:23.409Z,19.60
2018-05-23T01:49:49.981Z,18.47
2018-05-23T01:52:16.575Z,19.40
2018-05-23T01:54:43.190Z,20.17
2018-05-23T01:57:09.860Z,22.33
2018-05-23T01:59:36.447Z,19.63
2018-05-23T02:02:03.808Z,19.50
2018-05-23T02:04:31.155Z,19.13
2018-05-23T02:06:57.751Z,18.73
2018-05-23T02:09:24.383Z,23.43
2018-05-23T02:11:50.948Z,19.97
2018-05-23T02:14:17.520Z,25.50
2018-05-23T02:16:44.076Z,20.47
2018-05-23T02:19:10.709Z,19.27
2018-05-23T02:21:37.210Z,18.87
2018-05-23T02:24:03.824Z,20.17
2018-05-23T02:26:30.460Z,22.10
2018-05-23T02:28:56.994Z,22.13
2018-05-23T02:31:23.538Z,18.93
2018-05-23T02:33:50.102Z,21.20
2018-05-23T02:36:17.380Z,18.50
2018-05-23T02:38:43.920Z,21.17
2018-05-23T02:41:10.502Z,20.33
2018-05-23T02:43:37.076Z,19.93
2018-05-23T02:46:03.681Z,21.27
2018-05-23T02:48:30.333Z,23.37
2018-05-23T02:50:56.912Z,20.17
2018-05-23T02:53:23.455Z,21.20
2018-05-23T02:55:50.045Z,21.77
2018-05-23T02:58:17.366Z,24.93
2018-05-23T03:00:43.937Z,23.93
2018-05-23T03:03:11.231Z,21.67
2018-05-23T03:05:37.800Z,24.23
2018-05-23T03:08:05.171Z,21.67
2018-05-23T03:10:32.478Z,25.77
2018-05-23T03:12:59.013Z,24.73
2018-05-23T03:15:25.584Z,22.93
2018-05-23T03:17:52.155Z,22.53
2018-05-23T03:20:18.708Z,23.97
2018-05-23T03:22:45.261Z,21.00
2018-05-23T03:25:11.915Z,24.03
2018-05-23T03:27:38.515Z,23.43
2018-05-23T03:30:05.106Z,24.40
2018-05-23T03:32:31.655Z,22.77
2018-05-23T03:34:58.964Z,25.63
2018-05-23T03:37:25.522Z,24.43
2018-05-23T03:39:52.094Z,27.27
2018-05-23T03:42:19.409Z,25.23
2018-05-23T03:44:45.966Z,24.03
2018-05-23T03:47:12.513Z,25.57
2018-05-23T03:49:39.098Z,25.00
2018-05-23T03:52:05.662Z,25.47
2018-05-23T03:54:32.264Z,23.17
2018-05-23T03:56:58.818Z,27.50
2018-05-23T03:59:37.283Z,25.37
2018-05-23T04:02:16.695Z,26.13
2018-05-23T04:04:50.081Z,26.17
2018-05-23T04:07:35.427Z,24.27
2018-05-23T04:10:01.976Z,24.13
2018-05-23T04:12:28.556Z,27.07
2018-05-23T04:14:55.091Z,26.47
2018-05-23T04:17:21.682Z,22.50
2018-05-23T04:19:48.263Z,22.57
2018-05-23T04:22:14.806Z,21.83
2018-05-23T04:24:42.120Z,21.20
2018-05-23T04:27:08.704Z,20.10
2018-05-23T04:29:36.008Z,22.10
2018-05-23T04:32:02.651Z,23.87
2018-05-23T04:34:29.234Z,20.63
2018-05-23T04:36:56.741Z,20.93
2018-05-23T04:39:23.314Z,19.80
2018-05-23T04:41:49.982Z,20.23
2018-05-23T04:44:16.659Z,21.47
2018-05-23T04:46:43.251Z,21.67
2018-05-23T04:49:10.649Z,25.37
2018-05-23T04:51:37.232Z,21.67
2018-05-23T04:54:03.827Z,21.77
2018-05-23T04:56:30.373Z,20.53
2018-05-23T04:58:56.957Z,26.07
2018-05-23T05:01:23.541Z,20.80
2018-05-23T05:03:50.118Z,21.80
2018-05-23T05:06:17.404Z,21.63
2018-05-23T05:08:43.981Z,21.97
2018-05-23T05:11:10.577Z,24.73
2018-05-23T05:13:37.908Z,22.47
2018-05-23T05:16:04.528Z,21.37
2018-05-23T05:18:31.138Z,21.37
2018-05-23T05:20:57.794Z,20.40
2018-05-23T05:23:24.361Z,26.53
2018-05-23T05:25:51.685Z,19.33
2018-05-23T05:28:18.254Z,19.20
2018-05-23T05:30:45.563Z,17.00
2018-05-23T05:33:12.129Z,20.60
2018-05-23T05:35:38.699Z,17.10
2018-05-23T05:38:05.259Z,17.47
2018-05-23T05:40:31.957Z,16.57
2018-05-23T05:42:58.510Z,16.93
2018-05-23T05:45:25.033Z,18.60
2018-05-23T05:47:51.707Z,19.70
2018-05-23T05:50:18.260Z,12.07
2018-05-23T05:52:44.836Z,16.40
2018-05-23T05:55:12.241Z,15.63
2018-05-23T05:57:38.784Z,12.13
2018-05-23T06:00:05.494Z,12.97
2018-05-23T06:02:32.067Z,14.30
2018-05-23T06:04:58.631Z,11.77
2018-05-23T06:07:25.199Z,11.87
2018-05-23T06:09:51.802Z,10.23
2018-05-23T06:12:18.341Z,19.50
2018-05-23T06:14:44.908Z,11.13
2018-05-23T06:17:11.466Z,10.40
2018-05-23T06:19:38.024Z,9.53
2018-05-23T06:22:04.580Z,11.23
2018-05-23T06:24:31.089Z,11.90
2018-05-23T06:26:57.648Z,8.73
2018-05-23T06:29:24.245Z,8.70
2018-05-23T06:31:50.785Z,13.03
2018-05-23T06:34:17.323Z,8.10
2018-05-23T06:36:43.882Z,8.23
2018-05-23T06:39:11.142Z,12.07
2018-05-23T06:41:37.707Z,9.83
2018-05-23T06:44:04.301Z,12.73
2018-05-23T06:46:30.844Z,9.87
2018-05-23T06:48:58.127Z,10.30
2018-05-23T06:51:25.410Z,10.87
2018-05-23T06:53:51.968Z,10.03
2018-05-23T06:56:18.532Z,9.00
2018-05-23T06:58:45.152Z,9.27
2018-05-23T07:01:11.780Z,8.57
2018-05-23T07:03:38.380Z,8.97
2018-05-23T07:06:05.669Z,10.87
2018-05-23T07:08:32.282Z,10.40
2018-05-23T07:10:58.848Z,10.13
2018-05-23T07:13:26.135Z,9.80
2018-05-23T07:15:52.689Z,9.30
2018-05-23T07:18:19.238Z,10.33
2018-05-23T07:20:46.511Z,9.67
2018-05-23T07:23:13.125Z,11.40
2018-05-23T07:25:39.688Z,16.60
2018-05-23T07:28:06.262Z,11.60
2018-05-23T07:30:32.888Z,10.40
2018-05-23T07:32:59.455Z,11.33
2018-05-23T07:35:25.989Z,8.70
2018-05-23T07:37:52.551Z,11.27
2018-05-23T07:40:19.102Z,11.67
2018-05-23T07:42:45.698Z,12.03
2018-05-23T07:45:12.378Z,13.40
2018-05-23T07:47:38.921Z,13.50
2018-05-23T07:50:05.484Z,13.47
2018-05-23T07:52:32.030Z,12.03
2018-05-23T07:54:58.604Z,9.27
2018-05-23T07:57:25.155Z,12.77
2018-05-23T07:59:51.688Z,12.63
2018-05-23T08:02:18.276Z,9.87
2018-05-23T08:04:44.889Z,10.83
2018-05-23T08:07:12.194Z,8.33
2018-05-23T08:09:39.447Z,13.27
2018-05-23T08:12:06.748Z,11.33
2018-05-23T08:14:33.264Z,8.43
2018-05-23T08:16:59.996Z,5.93
2018-05-23T08:19:26.574Z,6.83
2018-05-23T08:21:53.143Z,6.70
2018-05-23T08:24:19.769Z,8.60
2018-05-23T08:26:46.266Z,6.97
2018-05-23T08:29:12.835Z,10.83
2018-05-23T08:31:39.410Z,12.53
2018-05-23T08:34:05.948Z,8.60
2018-05-23T08:36:32.551Z,6.40
2018-05-23T08:38:59.076Z,5.60
2018-05-23T08:41:25.620Z,8.70
2018-05-23T08:43:52.259Z,5.80
2018-05-23T08:46:19.569Z,8.67
2018-05-23T08:48:46.117Z,8.53
2018-05-23T08:51:12.671Z,7.00
2018-05-23T08:53:39.207Z,6.60
2018-05-23T08:56:05.743Z,6.93
2018-05-23T08:58:33.037Z,5.73
2018-05-23T09:00:59.587Z,6.10
2018-05-23T09:03:26.124Z,7.23
2018-05-23T09:05:52.724Z,6.87
2018-05-23T09:08:19.270Z,8.37
2018-05-23T09:10:45.818Z,6.27
2018-05-23T09:13:12.359Z,6.03
2018-05-23T09:15:39.648Z,6.53
2018-05-23T09:18:06.183Z,9.73
2018-05-23T09:20:32.739Z,7.10
2018-05-23T09:22:59.297Z,6.10
2018-05-23T09:25:25.860Z,5.53
2018-05-23T09:27:52.416Z,7.20
2018-05-23T09:30:18.950Z,6.77
2018-05-23T09:32:45.484Z,6.27
2018-05-23T09:35:12.137Z,5.67
2018-05-23T09:37:38.662Z,6.83
2018-05-23T09:40:05.193Z,6.83
2018-05-23T09:42:31.716Z,8.00
2018-05-23T09:44:58.247Z,6.47
2018-05-23T09:47:25.516Z,6.57
2018-05-23T09:49:52.076Z,6.43
2018-05-23T09:52:19.473Z,7.67
2018-05-23T09:54:45.994Z,7.50
2018-05-23T09:57:12.571Z,7.17
2018-05-23T09:59:39.151Z,8.40
2018-05-23T10:02:05.694Z,5.77
2018-05-23T10:04:32.972Z,9.83
2018-05-23T10:06:59.814Z,5.17
2018-05-23T10:09:26.348Z,7.40
2018-05-23T10:11:52.885Z,9.30
2018-05-23T10:16:55.974Z,7.03
2018-05-23T10:19:23.275Z,8.83
2018-05-23T10:21:49.875Z,10.00
2018-05-23T10:24:16.470Z,8.07
2018-05-23T10:26:43.319Z,9.63
2018-05-23T10:29:09.924Z,6.57
2018-05-23T10:31:36.433Z,6.60
2018-05-23T10:34:03.018Z,11.73
2018-05-23T10:36:29.559Z,10.33
2018-05-23T10:38:56.141Z,9.27
2018-05-23T10:41:22.677Z,6.50
2018-05-23T10:43:49.245Z,7.63
2018-05-23T10:46:15.865Z,5.97
2018-05-23T10:48:42.379Z,7.30
2018-05-23T10:51:08.947Z,7.83
2018-05-23T10:53:36.301Z,6.10
2018-05-23T10:56:03.565Z,13.33
2018-05-23T10:58:30.113Z,6.03
2018-05-23T11:00:56.698Z,6.73
2018-05-23T11:03:23.227Z,8.93
2018-05-23T11:05:49.776Z,7.43
2018-05-23T11:08:16.322Z,7.60
2018-05-23T11:10:42.871Z,7.97
2018-05-23T11:13:10.175Z,7.73
2018-05-23T11:15:36.756Z,8.57
2018-05-23T11:18:03.279Z,6.13
2018-05-23T11:20:30.306Z,6.97
2018-05-23T11:22:56.867Z,7.53
2018-05-23T11:25:24.221Z,7.80
2018-05-23T11:27:51.504Z,7.63
2018-05-23T11:30:18.057Z,6.00
2018-05-23T11:32:46.132Z,10.87
2018-05-23T11:35:12.675Z,9.67
2018-05-23T11:37:39.214Z,6.37
2018-05-23T11:40:05.766Z,8.67
2018-05-23T11:42:32.492Z,8.93
2018-05-23T11:44:59.001Z,6.87
2018-05-23T11:47:25.514Z,9.57
2018-05-23T11:49:52.788Z,6.43
2018-05-23T11:52:19.386Z,9.33
2018-05-23T11:54:45.893Z,8.73
2018-05-23T11:57:12.433Z,7.07
2018-05-23T11:59:38.951Z,6.33
2018-05-23T12:02:05.488Z,7.50
2018-05-23T12:04:32.075Z,9.17
2018-05-23T12:06:58.658Z,5.37
2018-05-23T12:09:25.183Z,7.90
2018-05-23T12:11:51.717Z,6.07
2018-05-23T12:14:18.241Z,8.23
2018-05-23T12:16:44.818Z,7.87
2018-05-23T12:19:11.398Z,6.30
2018-05-23T12:21:37.927Z,7.23
2018-05-23T12:24:04.586Z,8.07
2018-05-23T12:26:31.932Z,5.30
2018-05-23T12:28:59.205Z,8.77
2018-05-23T12:31:25.752Z,5.93
2018-05-23T12:33:52.308Z,7.20
2018-05-23T12:36:18.903Z,6.97
2018-05-23T12:38:45.456Z,11.83
2018-05-23T12:41:12.014Z,6.10
2018-05-23T12:43:38.575Z,4.70
2018-05-23T12:46:05.166Z,5.90
2018-05-23T12:48:31.702Z,4.70
2018-05-23T12:50:58.289Z,5.90
2018-05-23T12:53:24.814Z,6.07
2018-05-23T12:55:51.357Z,8.60
2018-05-23T12:58:17.904Z,5.53
2018-05-23T13:00:44.500Z,8.20
2018-05-23T13:03:11.094Z,9.73
2018-05-23T13:05:38.489Z,7.13
2018-05-23T13:08:05.109Z,5.93
2018-05-23T13:10:31.637Z,6.73
2018-05-23T13:12:58.296Z,5.27
2018-05-23T13:15:24.840Z,5.80
2018-05-23T13:17:51.375Z,4.97
2018-05-23T13:20:17.943Z,6.80
2018-05-23T13:22:45.273Z,11.50
2018-05-23T13:25:11.880Z,4.73
2018-05-23T13:27:38.412Z,7.33
2018-05-23T13:30:05.014Z,11.33
2018-05-23T13:32:31.538Z,6.90
2018-05-23T13:34:58.184Z,6.50
2018-05-23T13:37:24.744Z,7.90
2018-05-23T13:39:51.354Z,8.93
2018-05-23T13:42:17.923Z,7.90
2018-05-23T13:44:45.213Z,5.03
2018-05-23T13:47:11.802Z,4.73
2018-05-23T13:49:38.360Z,7.37
2018-05-23T13:52:05.675Z,5.67
2018-05-23T13:54:32.307Z,7.43
2018-05-23T13:56:58.890Z,4.47
2018-05-23T13:59:26.132Z,4.20
2018-05-23T14:01:53.504Z,5.50
2018-05-23T14:04:19.942Z,5.57
2018-05-23T14:06:46.515Z,8.03
2018-05-23T14:09:13.077Z,7.13
2018-05-23T14:11:39.639Z,7.83
2018-05-23T14:14:06.940Z,5.80
2018-05-23T14:16:34.469Z,5.53
2018-05-23T14:19:01.039Z,5.97
2018-05-23T14:21:27.568Z,5.77
2018-05-23T14:23:54.099Z,5.80
2018-05-23T14:26:20.669Z,6.70
2018-05-23T14:28:47.367Z,5.00
2018-05-23T14:31:13.910Z,8.70
2018-05-23T14:33:40.481Z,9.37
2018-05-23T14:36:07.048Z,6.67
2018-05-23T14:38:33.597Z,8.80
2018-05-23T14:41:00.241Z,9.03
2018-05-23T14:43:26.889Z,9.73
2018-05-23T14:45:53.326Z,8.43
2018-05-23T14:48:20.278Z,7.23
2018-05-23T14:50:46.835Z,10.70
2018-05-23T14:53:13.386Z,5.13
2018-05-23T14:55:39.935Z,8.53
2018-05-23T14:58:07.288Z,5.17
2018-05-23T15:00:34.567Z,7.87
2018-05-23T15:03:01.119Z,4.63
2018-05-23T15:05:27.677Z,5.00
2018-05-23T15:07:54.202Z,8.43
2018-05-23T15:10:20.800Z,6.63
2018-05-23T15:12:47.371Z,6.07
2018-05-23T15:15:13.907Z,6.60
2018-05-23T15:17:40.428Z,6.13
2018-05-23T15:20:07.087Z,5.10
2018-05-23T15:22:33.578Z,4.57
2018-05-23T15:25:00.104Z,5.23
2018-05-23T15:27:26.684Z,5.90
2018-05-23T15:29:53.229Z,5.53
2018-05-23T15:32:19.827Z,5.87
2018-05-23T15:34:47.169Z,5.17
2018-05-23T15:37:13.735Z,7.07
2018-05-23T15:39:40.354Z,7.47
2018-05-23T15:42:07.614Z,7.03
2018-05-23T15:44:34.939Z,7.07
2018-05-23T15:47:01.490Z,6.13
2018-05-23T15:49:28.814Z,8.60
2018-05-23T15:51:55.359Z,5.50
2018-05-23T15:54:21.918Z,4.93
2018-05-23T15:56:48.548Z,8.47
2018-05-23T15:59:15.112Z,7.90
2018-05-23T16:01:41.651Z,6.67
2018-05-23T16:04:08.268Z,8.20
2018-05-23T16:06:34.858Z,6.30
2018-05-23T16:09:01.503Z,8.17
2018-05-23T16:11:28.068Z,7.50
2018-05-23T16:13:55.337Z,14.37
2018-05-23T16:16:22.638Z,11.53
2018-05-23T16:18:49.198Z,11.60
2018-05-23T16:21:15.722Z,7.97
2018-05-23T16:23:42.282Z,8.30
2018-05-23T16:26:08.821Z,9.43
2018-05-23T16:28:35.381Z,8.27
2018-05-23T16:31:02.701Z,10.27
2018-05-23T16:33:29.256Z,7.13
2018-05-23T16:35:55.849Z,7.10
2018-05-23T16:38:22.454Z,8.70
2018-05-23T16:40:49.016Z,14.17
2018-05-23T16:43:15.525Z,6.80
2018-05-23T16:45:42.058Z,6.27
2018-05-23T16:48:08.592Z,7.17
2018-05-23T16:50:35.887Z,9.27
2018-05-23T16:53:02.441Z,8.67
2018-05-23T16:55:29.014Z,8.13
2018-05-23T16:57:55.549Z,7.63
2018-05-23T17:00:22.902Z,10.10
2018-05-23T17:02:50.163Z,12.83
2018-05-23T17:05:16.695Z,7.23
2018-05-23T17:07:43.968Z,7.07
2018-05-23T17:10:10.555Z,7.23
2018-05-23T17:12:37.214Z,9.40
2018-05-23T17:15:04.470Z,7.93
2018-05-23T17:17:31.263Z,6.53
2018-05-23T17:19:57.866Z,7.70
2018-05-23T17:22:24.441Z,8.00
2018-05-23T17:24:50.985Z,5.97
2018-05-23T17:27:17.606Z,7.80
2018-05-23T17:29:44.157Z,9.83
2018-05-23T17:32:10.782Z,9.10
2018-05-23T17:34:37.348Z,8.40
2018-05-23T17:37:03.979Z,9.83
2018-05-23T17:39:31.285Z,10.13
2018-05-23T17:41:58.855Z,6.77
2018-05-23T17:44:25.495Z,8.60
2018-05-23T17:46:52.021Z,7.57
2018-05-23T17:49:18.529Z,10.17
2018-05-23T17:51:45.192Z,9.33
2018-05-23T17:54:11.777Z,12.00
2018-05-23T17:56:39.039Z,8.67
2018-05-23T17:59:05.902Z,8.33
2018-05-23T18:01:33.319Z,8.43
2018-05-23T18:04:00.007Z,10.57
2018-05-23T18:06:27.433Z,8.53
2018-05-23T18:08:53.953Z,8.03
2018-05-23T18:11:21.388Z,9.77
2018-05-23T18:13:48.182Z,10.83
2018-05-23T18:16:14.841Z,8.33
2018-05-23T18:18:41.477Z,12.00
2018-05-23T18:21:08.036Z,15.67
2018-05-23T18:23:34.624Z,14.67
2018-05-23T18:26:01.168Z,11.37
2018-05-23T18:28:27.713Z,10.07
2018-05-23T18:30:54.230Z,10.23
2018-05-23T18:33:20.760Z,12.87
2018-05-23T18:35:48.086Z,10.87
2018-05-23T18:38:14.668Z,8.80
2018-05-23T18:40:42.002Z,9.67
2018-05-23T18:43:08.573Z,11.87
2018-05-23T18:45:35.836Z,12.03
2018-05-23T18:48:04.032Z,13.50
2018-05-23T18:50:30.608Z,11.73
2018-05-23T18:52:57.280Z,11.97
2018-05-23T18:55:24.547Z,8.40
2018-05-23T18:57:51.170Z,11.77
2018-05-23T19:00:17.756Z,11.63
2018-05-23T19:02:45.211Z,12.03
2018-05-23T19:05:11.892Z,9.17
2018-05-23T19:07:38.348Z,12.40
2018-05-23T19:10:04.905Z,9.33
2018-05-23T19:12:31.446Z,11.07
2018-05-23T19:14:58.028Z,11.87
2018-05-23T19:17:24.546Z,11.03
2018-05-23T19:19:51.244Z,9.97
2018-05-23T19:22:17.827Z,10.57
2018-05-23T19:24:44.354Z,11.27
2018-05-23T19:27:10.909Z,14.00
2018-05-23T19:29:37.527Z,11.43
2018-05-23T19:32:04.076Z,11.43
2018-05-23T19:34:30.642Z,11.40
2018-05-23T19:36:58.021Z,11.07
2018-05-23T19:39:24.508Z,11.67
2018-05-23T19:41:53.948Z,10.57
2018-05-23T19:44:23.851Z,11.83
2018-05-23T19:46:52.105Z,11.97
2018-05-23T19:49:18.646Z,11.57
2018-05-23T19:51:45.171Z,11.87
2018-05-23T19:54:11.676Z,12.13
2018-05-23T19:56:38.352Z,13.07
2018-05-23T19:59:04.888Z,12.80
2018-05-23T20:01:31.511Z,10.53
2018-05-23T20:03:58.040Z,10.63
2018-05-23T20:06:24.560Z,11.37
2018-05-23T20:08:51.101Z,12.60
2018-05-23T20:11:18.405Z,12.57
2018-05-23T20:13:44.983Z,16.13
2018-05-23T20:16:13.677Z,12.47
2018-05-23T20:18:40.225Z,14.33
2018-05-23T20:21:06.856Z,13.87
2018-05-23T20:23:33.444Z,13.03
2018-05-23T20:26:00.728Z,12.00
2018-05-23T20:28:27.341Z,11.63
2018-05-23T20:30:54.685Z,11.03
2018-05-23T20:33:21.275Z,11.37
2018-05-23T20:35:47.909Z,10.80
2018-05-23T20:38:14.544Z,14.17
2018-05-23T20:40:41.182Z,13.00
2018-05-23T20:43:07.844Z,12.97
2018-05-23T20:45:34.500Z,12.50
2018-05-23T20:48:01.086Z,12.40
2018-05-23T20:50:27.643Z,13.97
2018-05-23T20:52:54.275Z,12.43
2018-05-23T20:55:21.607Z,12.13
2018-05-23T20:57:48.258Z,14.23
2018-05-23T21:00:14.880Z,11.53
2018-05-23T21:02:41.465Z,13.10
2018-05-23T21:05:08.047Z,12.17
2018-05-23T21:07:34.609Z,14.93
2018-05-23T21:10:01.210Z,11.80
2018-05-23T21:12:28.507Z,12.97
2018-05-23T21:14:55.069Z,12.13
2018-05-23T21:17:21.661Z,14.80
2018-05-23T21:19:48.201Z,14.03
2018-05-23T21:22:14.789Z,12.57
2018-05-23T21:24:41.323Z,14.87
2018-05-23T21:27:07.840Z,12.53
2018-05-23T21:29:34.361Z,12.97
2018-05-23T21:32:00.913Z,13.90
2018-05-23T21:34:27.439Z,11.53
2018-05-23T21:36:53.991Z,17.13
2018-05-23T21:39:20.551Z,14.23
2018-05-23T21:41:47.114Z,15.30
2018-05-23T21:44:13.638Z,14.30
2018-05-23T21:46:40.936Z,13.87
2018-05-23T21:49:07.508Z,13.67
2018-05-23T21:51:34.119Z,14.70
2018-05-23T21:54:00.691Z,14.30
2018-05-23T21:56:27.984Z,13.80
2018-05-23T21:58:54.548Z,18.10
2018-05-23T22:01:21.091Z,14.37
2018-05-23T22:03:47.632Z,15.37
2018-05-23T22:06:14.174Z,14.10
2018-05-23T22:08:40.721Z,14.90
2018-05-23T22:11:07.315Z,14.03
2018-05-23T22:13:33.877Z,14.63
2018-05-23T22:16:00.437Z,13.37
2018-05-23T22:18:27.715Z,14.10
2018-05-23T22:20:54.296Z,13.03
2018-05-23T22:23:20.826Z,16.87
2018-05-23T22:25:47.429Z,13.77
2018-05-23T22:28:13.987Z,14.63
2018-05-23T22:30:40.611Z,15.00
2018-05-23T22:33:07.080Z,18.03
2018-05-23T22:35:34.369Z,17.03
2018-05-23T22:38:01.623Z,14.20
2018-05-23T22:40:28.900Z,16.43
2018-05-23T22:42:55.469Z,14.20
2018-05-23T22:45:22.022Z,13.60
2018-05-23T22:47:48.635Z,13.93
2018-05-23T22:50:15.160Z,15.03
2018-05-23T22:52:41.712Z,15.70
2018-05-23T22:55:08.229Z,16.73
2018-05-23T22:57:34.832Z,16.73
2018-05-23T23:00:01.373Z,14.03
2018-05-23T23:02:27.913Z,14.60
2018-05-23T23:04:54.470Z,18.23
2018-05-23T23:07:21.023Z,14.83
2018-05-23T23:09:47.601Z,14.83
2018-05-23T23:12:14.868Z,15.93
2018-05-23T23:14:41.388Z,15.07
2018-05-23T23:17:07.913Z,18.17
2018-05-23T23:19:34.513Z,17.83
2018-05-23T23:22:01.065Z,16.57
2018-05-23T23:24:27.619Z,14.60
2018-05-23T23:26:54.165Z,16.80
2018-05-23T23:29:20.716Z,16.73
2018-05-23T23:31:48.015Z,19.57
2018-05-23T23:34:14.593Z,17.33
2018-05-23T23:36:41.141Z,17.23
2018-05-23T23:39:07.710Z,15.30
2018-05-23T23:41:34.307Z,17.50
2018-05-23T23:44:00.862Z,16.40
2018-05-23T23:46:28.159Z,16.70
2018-05-23T23:48:54.719Z,16.20
2018-05-23T23:51:21.250Z,13.43
2018-05-23T23:53:48.538Z,14.83
2018-05-23T23:56:15.096Z,15.00
2018-05-23T23:58:41.676Z,18.53
